createdAt,value
2018-06-17T00:02:12.433Z,17.10
2018-06-17T00:07:31.295Z,17.62
2018-06-17T00:09:59.527Z,18.50
2018-06-17T00:12:27.762Z,18.30
2018-06-17T00:14:56.054Z,18.70
2018-06-17T00:17:24.340Z,18.60
2018-06-17T00:19:52.340Z,19.33
2018-06-17T00:22:20.581Z,19.05
2018-06-17T00:24:48.811Z,18.82
2018-06-17T00:27:17.084Z,19.27
2018-06-17T00:29:45.084Z,20.27
2018-06-17T00:32:15.307Z,21.40
2018-06-17T00:34:43.587Z,22.05
2018-06-17T00:37:11.578Z,20.60
2018-06-17T00:39:39.862Z,21.73
2018-06-17T00:42:08.105Z,20.45
2018-06-17T00:44:36.365Z,21.77
2018-06-17T00:47:04.613Z,21.73
2018-06-17T00:49:32.878Z,20.88
2018-06-17T00:52:01.138Z,21.27
2018-06-17T00:54:29.406Z,20.85
2018-06-17T00:57:09.053Z,19.55
2018-06-17T00:59:37.298Z,19.70
2018-06-17T01:02:05.682Z,19.30
2018-06-17T01:04:33.947Z,18.27
2018-06-17T01:07:02.182Z,17.20
2018-06-17T01:09:30.444Z,17.40
2018-06-17T01:11:58.676Z,16.37
2018-06-17T01:14:26.983Z,16.25
2018-06-17T01:16:55.285Z,16.70
2018-06-17T01:19:23.503Z,17.87
2018-06-17T01:21:51.770Z,16.20
2018-06-17T01:24:19.984Z,16.40
2018-06-17T01:26:48.273Z,16.20
2018-06-17T01:29:16.515Z,15.95
2018-06-17T01:31:44.817Z,16.73
2018-06-17T01:34:13.165Z,15.25
2018-06-17T01:36:41.150Z,15.68
2018-06-17T01:39:09.674Z,15.35
2018-06-17T01:41:37.921Z,15.00
2018-06-17T01:44:06.320Z,12.90
2018-06-17T01:46:34.745Z,13.65
2018-06-17T01:49:03.012Z,13.73
2018-06-17T01:51:31.247Z,13.40
2018-06-17T01:53:59.515Z,13.32
2018-06-17T01:56:27.758Z,13.50
2018-06-17T01:58:55.995Z,13.22
2018-06-17T02:01:24.235Z,14.10
2018-06-17T02:03:57.853Z,12.18
2018-06-17T02:06:31.605Z,11.75
2018-06-17T02:09:05.067Z,11.00
2018-06-17T02:11:43.902Z,10.60
2018-06-17T02:14:17.383Z,10.55
2018-06-17T02:16:45.627Z,10.65
2018-06-17T02:19:13.855Z,10.68
2018-06-17T02:21:42.109Z,9.70
2018-06-17T02:24:10.373Z,10.18
2018-06-17T02:26:38.623Z,9.88
2018-06-17T02:29:06.889Z,9.05
2018-06-17T02:31:35.141Z,9.60
2018-06-17T02:34:03.567Z,10.32
2018-06-17T02:36:31.821Z,9.85
2018-06-17T02:39:00.126Z,9.08
2018-06-17T02:41:28.531Z,8.60
2018-06-17T02:43:56.783Z,8.78
2018-06-17T02:46:30.388Z,8.50
2018-06-17T02:49:04.055Z,7.62
2018-06-17T02:51:37.681Z,7.85
2018-06-17T02:54:11.430Z,8.35
2018-06-17T02:56:39.735Z,8.30
2018-06-17T02:59:08.293Z,7.73
2018-06-17T03:01:36.536Z,8.40
2018-06-17T03:04:04.901Z,8.50
2018-06-17T03:06:33.185Z,8.30
2018-06-17T03:09:01.434Z,7.90
2018-06-17T03:11:29.699Z,8.58
2018-06-17T03:13:57.634Z,8.58
2018-06-17T03:16:25.941Z,8.45
2018-06-17T03:18:54.175Z,8.65
2018-06-17T03:21:22.420Z,8.50
2018-06-17T03:23:50.674Z,8.80
2018-06-17T03:26:24.385Z,8.58
2018-06-17T03:28:57.851Z,8.10
2018-06-17T03:31:25.868Z,9.10
2018-06-17T03:33:54.083Z,9.35
2018-06-17T03:36:22.363Z,8.80
2018-06-17T03:38:50.570Z,9.23
2018-06-17T03:41:18.835Z,8.38
2018-06-17T03:43:47.166Z,8.47
2018-06-17T03:46:15.439Z,8.63
2018-06-17T03:48:43.697Z,8.20
2018-06-17T03:51:11.955Z,8.20
2018-06-17T03:53:40.203Z,7.25
2018-06-17T03:56:08.493Z,7.55
2018-06-17T03:58:36.767Z,7.25
2018-06-17T04:01:05.022Z,7.35
2018-06-17T04:03:33.281Z,6.72
2018-06-17T04:06:01.533Z,7.40
2018-06-17T04:08:29.761Z,7.00
2018-06-17T04:10:58.083Z,6.83
2018-06-17T04:13:26.345Z,7.00
2018-06-17T04:15:54.665Z,6.53
2018-06-17T04:18:22.906Z,7.60
2018-06-17T04:20:51.158Z,7.47
2018-06-17T04:23:19.419Z,6.53
2018-06-17T04:25:47.711Z,7.25
2018-06-17T04:28:16.012Z,7.60
2018-06-17T04:30:44.244Z,6.78
2018-06-17T04:33:12.479Z,7.28
2018-06-17T04:35:40.706Z,6.70
2018-06-17T04:38:08.985Z,7.42
2018-06-17T04:40:37.242Z,6.85
2018-06-17T04:43:05.487Z,6.90
2018-06-17T04:45:33.462Z,6.90
2018-06-17T04:48:01.449Z,6.70
2018-06-17T04:50:29.727Z,6.67
2018-06-17T04:52:57.993Z,6.20
2018-06-17T04:55:26.475Z,6.28
2018-06-17T04:57:54.737Z,6.20
2018-06-17T05:00:22.984Z,7.53
2018-06-17T05:02:51.261Z,6.58
2018-06-17T05:05:19.779Z,6.17
2018-06-17T05:07:47.787Z,6.80
2018-06-17T05:10:16.054Z,6.42
2018-06-17T05:12:44.037Z,6.10
2018-06-17T05:15:12.025Z,6.40
2018-06-17T05:17:40.045Z,6.65
2018-06-17T05:20:08.296Z,6.20
2018-06-17T05:22:36.533Z,5.90
2018-06-17T05:25:04.787Z,5.80
2018-06-17T05:27:33.025Z,5.95
2018-06-17T05:30:01.278Z,5.92
2018-06-17T05:32:29.526Z,5.72
2018-06-17T05:34:57.749Z,5.78
2018-06-17T05:37:25.966Z,5.50
2018-06-17T05:39:54.248Z,6.05
2018-06-17T05:42:22.483Z,4.90
2018-06-17T05:44:50.721Z,4.95
2018-06-17T05:47:18.961Z,5.50
2018-06-17T05:49:47.217Z,5.28
2018-06-17T05:52:15.469Z,5.17
2018-06-17T05:54:43.683Z,5.30
2018-06-17T05:57:11.930Z,4.75
2018-06-17T05:59:40.177Z,5.15
2018-06-17T06:02:08.411Z,4.45
2018-06-17T06:04:36.649Z,4.70
2018-06-17T06:07:04.941Z,4.85
2018-06-17T06:09:33.171Z,4.80
2018-06-17T06:12:01.470Z,4.08
2018-06-17T06:14:29.689Z,4.12
2018-06-17T06:16:57.950Z,4.20
2018-06-17T06:19:26.206Z,4.05
2018-06-17T06:21:54.563Z,3.85
2018-06-17T06:24:22.821Z,4.03
2018-06-17T06:26:51.069Z,3.58
2018-06-17T06:29:19.324Z,3.73
2018-06-17T06:31:47.597Z,3.20
2018-06-17T06:34:15.826Z,3.60
2018-06-17T06:36:44.056Z,3.50
2018-06-17T06:39:12.541Z,3.40
2018-06-17T06:41:40.918Z,2.97
2018-06-17T06:44:09.157Z,2.80
2018-06-17T06:46:37.445Z,4.63
2018-06-17T06:49:05.699Z,2.93
2018-06-17T06:51:33.983Z,2.70
2018-06-17T06:54:02.306Z,2.90
2018-06-17T06:56:30.551Z,2.70
2018-06-17T06:58:58.794Z,2.97
2018-06-17T07:01:38.465Z,2.70
2018-06-17T07:04:18.136Z,2.93
2018-06-17T07:06:57.802Z,2.50
2018-06-17T07:09:39.439Z,2.83
2018-06-17T07:12:07.732Z,2.90
2018-06-17T07:14:35.949Z,2.80
2018-06-17T07:17:15.614Z,3.00
2018-06-17T07:19:43.576Z,2.87
2018-06-17T07:22:11.830Z,2.77
2018-06-17T07:24:40.275Z,3.00
2018-06-17T07:27:19.812Z,2.43
2018-06-17T07:29:48.433Z,2.80
2018-06-17T07:32:16.477Z,3.23
2018-06-17T07:34:45.138Z,2.30
2018-06-17T07:37:13.370Z,2.40
2018-06-17T07:40:19.493Z,2.67
2018-06-17T07:42:49.206Z,2.73
2018-06-17T07:45:17.492Z,3.17
2018-06-17T07:47:45.771Z,2.73
2018-06-17T07:50:26.858Z,2.53
2018-06-17T07:53:06.569Z,2.73
2018-06-17T07:55:34.868Z,2.90
2018-06-17T07:58:03.093Z,2.73
2018-06-17T08:00:31.701Z,3.00
2018-06-17T08:02:59.711Z,3.00
2018-06-17T08:05:28.010Z,2.60
2018-06-17T08:07:56.222Z,2.30
2018-06-17T08:10:24.438Z,2.67
2018-06-17T08:12:52.681Z,3.13
2018-06-17T08:15:20.988Z,2.50
2018-06-17T08:17:49.223Z,2.83
2018-06-17T08:20:17.510Z,2.80
2018-06-17T08:22:45.685Z,2.70
2018-06-17T08:25:13.937Z,3.40
2018-06-17T08:27:42.153Z,2.43
2018-06-17T08:30:10.359Z,2.77
2018-06-17T08:32:38.599Z,2.60
2018-06-17T08:35:06.819Z,2.77
2018-06-17T08:37:35.041Z,3.13
2018-06-17T08:40:03.264Z,2.97
2018-06-17T08:42:31.510Z,2.57
2018-06-17T08:44:59.740Z,2.50
2018-06-17T08:47:27.978Z,2.60
2018-06-17T08:49:56.221Z,3.10
2018-06-17T08:52:24.458Z,2.70
2018-06-17T08:54:52.409Z,2.60
2018-06-17T08:57:20.641Z,3.13
2018-06-17T08:59:48.905Z,2.40
2018-06-17T09:02:16.940Z,3.00
2018-06-17T09:04:45.186Z,3.23
2018-06-17T09:07:13.442Z,3.23
2018-06-17T09:09:41.674Z,3.53
2018-06-17T09:12:09.925Z,2.80
2018-06-17T09:14:38.157Z,3.30
2018-06-17T09:17:06.438Z,2.97
2018-06-17T09:19:34.667Z,2.50
2018-06-17T09:22:02.911Z,3.23
2018-06-17T09:24:31.159Z,2.73
2018-06-17T09:26:59.475Z,2.57
2018-06-17T09:29:27.730Z,2.73
2018-06-17T09:31:56.116Z,2.30
2018-06-17T09:34:24.315Z,3.10
2018-06-17T09:36:52.576Z,2.30
2018-06-17T09:39:20.818Z,3.07
2018-06-17T09:41:49.162Z,3.10
2018-06-17T09:44:17.415Z,2.67
2018-06-17T09:46:45.643Z,2.50
2018-06-17T09:49:13.878Z,2.70
2018-06-17T09:51:42.103Z,3.00
2018-06-17T09:54:10.322Z,2.70
2018-06-17T09:56:38.550Z,2.87
2018-06-17T09:59:06.800Z,3.00
2018-06-17T10:01:35.062Z,3.07
2018-06-17T10:04:03.283Z,2.33
2018-06-17T10:06:31.485Z,2.70
2018-06-17T10:08:59.763Z,3.43
2018-06-17T10:11:27.961Z,3.07
2018-06-17T10:13:56.184Z,3.27
2018-06-17T10:16:24.441Z,2.83
2018-06-17T10:18:52.769Z,2.70
2018-06-17T10:21:20.982Z,3.03
2018-06-17T10:23:49.238Z,2.40
2018-06-17T10:26:17.485Z,2.60
2018-06-17T10:28:45.682Z,4.50
2018-06-17T10:31:13.907Z,3.43
2018-06-17T10:33:42.141Z,3.40
2018-06-17T10:36:10.406Z,2.97
2018-06-17T10:38:38.654Z,3.43
2018-06-17T10:41:06.943Z,2.90
2018-06-17T10:43:35.224Z,3.73
2018-06-17T10:46:03.390Z,3.50
2018-06-17T10:48:31.617Z,3.43
2018-06-17T10:50:59.824Z,3.20
2018-06-17T10:53:28.074Z,3.27
2018-06-17T10:55:56.429Z,4.03
2018-06-17T10:58:24.581Z,3.57
2018-06-17T11:00:52.894Z,3.40
2018-06-17T11:03:22.416Z,4.10
2018-06-17T11:05:52.929Z,3.37
2018-06-17T11:08:22.317Z,3.63
2018-06-17T11:10:54.000Z,3.63
2018-06-17T11:13:25.078Z,4.00
2018-06-17T11:15:57.385Z,3.27
2018-06-17T11:18:25.654Z,3.13
2018-06-17T11:20:54.218Z,4.07
2018-06-17T11:23:24.474Z,4.07
2018-06-17T11:25:52.701Z,3.53
2018-06-17T11:28:21.024Z,3.53
2018-06-17T11:30:52.258Z,3.03
2018-06-17T11:33:23.466Z,4.40
2018-06-17T11:35:53.357Z,3.00
2018-06-17T11:38:22.981Z,3.40
2018-06-17T11:40:51.740Z,3.20
2018-06-17T11:43:23.806Z,3.63
2018-06-17T11:45:53.502Z,3.20
2018-06-17T11:48:21.704Z,3.50
2018-06-17T11:50:49.969Z,3.70
2018-06-17T11:53:18.442Z,2.53
2018-06-17T11:55:53.118Z,3.30
2018-06-17T11:58:22.677Z,2.63
2018-06-17T12:00:50.645Z,2.87
2018-06-17T12:03:19.030Z,3.20
2018-06-17T12:05:47.559Z,3.53
2018-06-17T12:08:15.823Z,2.73
2018-06-17T12:10:46.573Z,3.17
2018-06-17T12:13:22.361Z,2.50
2018-06-17T12:15:54.228Z,3.12
2018-06-17T12:18:24.054Z,4.28
2018-06-17T12:20:52.995Z,3.50
2018-06-17T12:23:23.420Z,3.50
2018-06-17T12:25:51.638Z,2.90
2018-06-17T12:28:19.868Z,2.40
2018-06-17T12:30:48.138Z,2.87
2018-06-17T12:33:16.508Z,3.00
2018-06-17T12:35:48.386Z,3.00
2018-06-17T12:38:21.321Z,2.70
2018-06-17T12:40:52.140Z,2.92
2018-06-17T13:03:03.977Z,2.87
2018-06-17T13:05:32.101Z,2.97
2018-06-17T13:08:00.335Z,2.50
2018-06-17T13:10:28.569Z,2.50
2018-06-17T13:12:56.855Z,3.03
2018-06-17T13:15:25.104Z,3.00
2018-06-17T13:17:53.498Z,2.43
2018-06-17T13:20:21.747Z,3.33
2018-06-17T13:25:17.506Z,2.27
2018-06-17T13:27:45.754Z,2.70
2018-06-17T13:30:15.755Z,2.70
2018-06-17T13:32:47.680Z,2.60
2018-06-17T13:35:22.187Z,2.80
2018-06-17T13:37:51.958Z,2.67
2018-06-17T13:40:20.411Z,3.10
2018-06-17T13:42:48.811Z,3.30
2018-06-17T13:45:22.089Z,2.47
2018-06-17T13:47:50.204Z,2.40
2018-06-17T13:50:18.797Z,3.20
2018-06-17T13:52:47.041Z,3.33
2018-06-17T13:55:15.286Z,3.17
2018-06-17T13:57:43.610Z,3.00
2018-06-17T14:00:11.860Z,2.40
2018-06-17T14:02:40.185Z,2.37
2018-06-17T14:05:08.422Z,2.77
2018-06-17T14:07:36.739Z,3.37
2018-06-17T14:10:05.496Z,3.30
2018-06-17T14:12:33.711Z,3.10
2018-06-17T14:15:01.961Z,3.33
2018-06-17T14:17:30.234Z,3.10
2018-06-17T14:19:58.455Z,2.90
2018-06-17T14:22:26.706Z,3.70
2018-06-17T14:24:55.010Z,3.10
2018-06-17T14:27:23.266Z,3.30
2018-06-17T14:29:51.574Z,3.40
2018-06-17T14:32:19.861Z,3.00
2018-06-17T14:34:48.086Z,3.10
2018-06-17T14:37:16.038Z,2.73
2018-06-17T14:39:44.262Z,2.73
2018-06-17T17:06:38.614Z,3.90
2018-06-17T17:09:07.682Z,3.77
2018-06-17T17:11:35.907Z,3.60
2018-06-17T17:14:03.919Z,4.08
2018-06-17T17:16:32.210Z,3.80
2018-06-17T17:19:00.685Z,3.95
2018-06-17T17:21:28.949Z,3.60
2018-06-17T17:23:57.228Z,3.92
2018-06-17T17:26:25.488Z,4.00
2018-06-17T17:28:53.736Z,3.72
2018-06-17T17:31:25.554Z,4.58
2018-06-17T17:33:59.318Z,4.87
2018-06-17T17:37:34.034Z,4.33
2018-06-17T17:40:07.802Z,4.25
2018-06-17T17:42:38.201Z,6.60
2018-06-17T17:45:10.610Z,5.37
2018-06-17T17:47:39.015Z,13.80
2018-06-17T17:50:07.255Z,6.20
2018-06-17T17:52:35.551Z,5.00
2018-06-17T17:55:03.777Z,4.28
2018-06-17T17:57:37.940Z,3.85
2018-06-17T18:00:13.006Z,3.80
2018-06-17T18:02:45.694Z,4.08
2018-06-17T18:05:19.183Z,4.30
2018-06-17T18:07:47.519Z,4.10
2018-06-17T18:10:22.536Z,4.50
2018-06-17T18:12:53.030Z,4.53
2018-06-17T18:15:21.807Z,4.67
2018-06-17T18:17:50.221Z,4.50
2018-06-17T18:20:31.384Z,4.27
2018-06-17T18:22:59.891Z,4.75
2018-06-17T18:25:33.608Z,4.80
2018-06-17T18:28:08.484Z,4.70
2018-06-17T18:30:42.209Z,5.12
2018-06-17T18:33:16.077Z,5.20
2018-06-17T18:35:49.791Z,5.10
2018-06-17T18:38:18.138Z,4.90
2018-06-17T18:40:47.131Z,4.83
2018-06-17T18:43:15.381Z,5.17
2018-06-17T18:45:44.278Z,5.20
2018-06-17T18:48:12.595Z,4.72
2018-06-17T18:50:40.880Z,5.53
2018-06-17T18:53:17.914Z,5.42
2018-06-17T18:55:46.238Z,5.85
2018-06-17T18:58:14.581Z,5.65
2018-06-17T19:00:42.573Z,6.10
2018-06-17T19:03:10.891Z,6.50
2018-06-17T19:05:39.280Z,6.35
2018-06-17T19:08:11.791Z,6.95
2018-06-17T19:11:48.346Z,8.15
2018-06-17T19:14:22.094Z,8.03
2018-06-17T19:16:55.692Z,8.60
2018-06-17T19:19:23.993Z,8.50
2018-06-17T19:21:52.300Z,9.13
2018-06-17T19:24:20.589Z,8.10
2018-06-17T19:26:49.304Z,8.30
2018-06-17T19:29:17.643Z,6.97
2018-06-17T19:31:47.449Z,8.60
2018-06-17T19:34:15.520Z,8.13
2018-06-17T19:36:44.204Z,7.40
2018-06-17T19:39:12.743Z,6.77
2018-06-17T19:41:41.073Z,7.53
2018-06-17T19:44:09.391Z,7.37
2018-06-17T19:46:37.444Z,6.70
2018-06-17T19:49:07.137Z,6.77
2018-06-17T19:51:41.435Z,7.83
2018-06-17T19:54:14.743Z,7.43
2018-06-17T19:56:48.227Z,8.17
2018-06-17T19:59:22.033Z,8.97
2018-06-17T20:01:50.335Z,7.80
2018-06-17T20:04:18.643Z,8.03
2018-06-17T20:06:46.909Z,8.10
2018-06-17T20:09:15.214Z,7.87
2018-06-17T20:11:43.528Z,8.00
2018-06-17T20:14:15.136Z,8.67
2018-06-17T20:16:43.425Z,8.07
2018-06-17T20:19:11.763Z,7.40
2018-06-17T20:21:39.887Z,6.90
2018-06-17T20:24:08.154Z,7.60
2018-06-17T20:26:36.456Z,6.83
2018-06-17T20:29:05.033Z,7.70
2018-06-17T20:31:33.068Z,7.57
2018-06-17T20:35:04.592Z,6.93
2018-06-17T20:37:38.338Z,6.90
2018-06-17T20:40:12.775Z,7.37
2018-06-17T20:42:46.489Z,7.30
2018-06-17T20:45:15.164Z,6.33
2018-06-17T20:47:43.517Z,6.80
2018-06-17T20:50:11.552Z,7.90
2018-06-17T20:52:39.857Z,7.10
2018-06-17T20:55:08.141Z,8.65
2018-06-17T20:57:36.445Z,8.13
2018-06-17T21:00:13.584Z,8.70
2018-06-17T21:02:41.998Z,8.85
2018-06-17T21:05:10.356Z,7.55
2018-06-17T21:07:38.690Z,7.33
2018-06-17T21:10:07.403Z,7.95
2018-06-17T21:12:35.698Z,7.70
2018-06-17T21:15:20.208Z,6.83
2018-06-17T21:17:49.693Z,7.00
2018-06-17T21:20:23.370Z,7.20
2018-06-17T21:22:57.089Z,7.37
2018-06-17T21:25:30.813Z,7.40
2018-06-17T21:28:00.649Z,7.30
2018-06-17T21:30:28.971Z,7.40
2018-06-17T21:32:57.242Z,6.60
2018-06-17T21:35:25.610Z,7.00
2018-06-17T21:37:53.975Z,6.80
2018-06-17T21:40:22.285Z,6.87
2018-06-17T21:42:50.577Z,7.00
2018-06-17T21:45:18.869Z,7.50
2018-06-17T21:47:47.159Z,7.70
2018-06-17T21:50:15.492Z,7.50
2018-06-17T21:52:43.733Z,7.03
2018-06-17T21:55:12.082Z,7.22
2018-06-17T21:57:40.377Z,7.12
2018-06-17T22:00:09.756Z,7.03
2018-06-17T22:02:41.889Z,8.10
2018-06-17T22:05:10.155Z,7.90
2018-06-17T22:07:42.690Z,7.40
2018-06-17T22:10:16.412Z,7.55
2018-06-17T22:12:50.153Z,7.63
2018-06-17T22:15:23.962Z,7.00
2018-06-17T22:17:53.117Z,7.80
2018-06-17T22:20:21.637Z,7.45
2018-06-17T22:22:49.905Z,7.65
2018-06-17T22:25:18.824Z,7.78
2018-06-17T22:27:47.155Z,7.70
2018-06-17T22:30:15.423Z,7.15
2018-06-17T22:32:43.723Z,7.60
2018-06-17T22:35:12.485Z,6.87
2018-06-17T22:37:40.800Z,7.03
2018-06-17T22:40:09.135Z,7.63
2018-06-17T22:42:37.697Z,7.35
2018-06-17T22:45:06.165Z,6.60
2018-06-17T22:47:39.748Z,6.97
2018-06-17T22:50:08.580Z,6.78
2018-06-17T22:52:48.712Z,7.10
2018-06-17T22:55:17.033Z,7.22
2018-06-17T22:57:50.522Z,6.92
2018-06-17T23:00:24.380Z,6.45
2018-06-17T23:02:58.076Z,7.05
2018-06-17T23:05:31.815Z,6.58
2018-06-17T23:08:05.508Z,5.87
2018-06-17T23:10:33.812Z,6.45
2018-06-17T23:13:02.112Z,6.93
2018-06-17T23:15:30.428Z,6.50
2018-06-17T23:17:58.720Z,6.50
2018-06-17T23:20:26.974Z,7.30
2018-06-17T23:22:55.464Z,6.60
2018-06-17T23:25:23.821Z,7.00
2018-06-17T23:27:52.122Z,6.65
2018-06-17T23:30:20.643Z,7.33
2018-06-17T23:32:48.939Z,7.15
2018-06-17T23:35:17.204Z,6.78
2018-06-17T23:37:45.470Z,7.12
2018-06-17T23:40:13.741Z,6.92
2018-06-17T23:42:42.055Z,7.17
2018-06-17T23:45:10.364Z,7.40
2018-06-17T23:47:44.246Z,7.50
2018-06-17T23:50:18.006Z,7.67
2018-06-17T23:52:51.728Z,7.93
2018-06-17T23:55:25.588Z,7.47
2018-06-17T23:57:59.349Z,7.42
